createdAt,value
2023-04-09T00:09:56.828Z,5.67
2023-04-09T00:20:03.038Z,5.70
2023-04-09T00:30:12.024Z,5.70
2023-04-09T00:40:19.252Z,5.83
2023-04-09T00:50:26.665Z,5.86
2023-04-09T01:00:33.845Z,5.67
2023-04-09T01:10:39.123Z,5.60
2023-04-09T01:20:47.843Z,5.66
2023-04-09T01:30:59.820Z,5.57
2023-04-09T01:41:06.013Z,5.59
2023-04-09T01:51:13.027Z,5.60
2023-04-09T02:01:22.424Z,5.40
2023-04-09T02:11:28.091Z,5.22
2023-04-09T02:21:35.097Z,5.17
2023-04-09T02:31:41.998Z,5.22
2023-04-09T02:41:48.962Z,5.28
2023-04-09T02:51:56.042Z,5.23
2023-04-09T03:02:02.669Z,5.21
2023-04-09T03:12:08.707Z,5.20
2023-04-09T03:22:16.102Z,5.10
2023-04-09T03:32:23.079Z,5.22
2023-04-09T03:42:30.552Z,5.38
2023-04-09T03:52:37.504Z,5.35
2023-04-09T04:12:51.259Z,5.22
2023-04-09T04:22:58.459Z,5.24
2023-04-09T04:33:05.454Z,5.30
2023-04-09T04:43:12.596Z,5.35
2023-04-09T04:53:19.519Z,5.45
2023-04-09T05:03:27.598Z,5.48
2023-04-09T05:13:34.846Z,5.48
2023-04-09T05:23:42.933Z,5.63
2023-04-09T05:33:50.069Z,5.82
2023-04-09T05:43:57.887Z,6.01
2023-04-09T05:54:04.236Z,6.17
2023-04-09T06:04:11.301Z,6.32
2023-04-09T06:14:18.643Z,6.43
2023-04-09T06:24:25.814Z,6.73
2023-04-09T06:34:32.853Z,7.11
2023-04-09T06:44:40.833Z,7.65
2023-04-09T06:54:48.081Z,8.25
2023-04-09T07:04:55.214Z,8.64
2023-04-09T07:15:01.532Z,8.85
2023-04-09T07:25:09.864Z,9.00
2023-04-09T07:35:18.811Z,9.47
2023-04-09T07:45:26.400Z,10.31
2023-04-09T07:55:33.558Z,10.98
2023-04-09T08:05:40.709Z,11.64
2023-04-09T08:15:47.697Z,11.61
2023-04-09T08:25:54.861Z,11.30
2023-04-09T08:36:03.366Z,11.22
2023-04-09T08:46:16.048Z,11.26
2023-04-09T08:56:23.997Z,11.24
2023-04-09T09:06:33.304Z,11.50
2023-04-09T09:16:41.234Z,11.48
2023-04-09T09:26:48.526Z,11.81
2023-04-09T09:36:55.826Z,11.41
2023-04-09T09:47:04.931Z,11.20
2023-04-09T09:57:14.144Z,11.24
2023-04-09T10:07:22.314Z,11.74
2023-04-09T10:17:29.719Z,12.10
2023-04-09T10:27:36.232Z,12.07
2023-04-09T10:37:50.908Z,11.77
2023-04-09T10:47:58.052Z,11.67
2023-04-09T10:58:04.600Z,11.97
2023-04-09T11:08:13.266Z,12.15
2023-04-09T11:18:23.909Z,12.40
2023-04-09T11:28:31.438Z,12.46
2023-04-09T11:38:39.088Z,12.12
2023-04-09T11:48:47.084Z,12.09
2023-04-09T11:58:56.057Z,12.12
2023-04-09T12:09:03.340Z,12.24
2023-04-09T12:19:11.778Z,12.47
2023-04-09T12:29:21.394Z,13.20
2023-04-09T12:39:28.739Z,13.55
2023-04-09T12:49:35.386Z,13.69
2023-04-09T12:59:42.398Z,13.38
2023-04-09T13:09:49.869Z,13.06
2023-04-09T13:19:56.406Z,12.57
2023-04-09T13:30:03.664Z,12.02
2023-04-09T13:40:12.662Z,11.41
2023-04-09T13:50:19.901Z,10.93
2023-04-09T14:00:26.052Z,10.35
2023-04-09T14:10:33.876Z,9.87
2023-04-09T14:20:41.415Z,9.82
2023-04-09T14:30:48.891Z,9.85
2023-04-09T14:40:56.175Z,9.81
2023-04-09T15:01:10.822Z,9.84
2023-04-09T15:11:16.492Z,9.81
2023-04-09T15:21:23.855Z,9.80
2023-04-09T15:31:31.213Z,9.79
2023-04-09T15:41:38.370Z,9.80
2023-04-09T15:51:45.461Z,9.66
2023-04-09T16:01:53.276Z,9.58
2023-04-09T16:12:01.669Z,9.39
2023-04-09T16:22:08.703Z,9.33
2023-04-09T16:32:16.830Z,9.20
2023-04-09T16:42:24.364Z,9.02
2023-04-09T17:02:39.593Z,8.82
2023-04-09T17:12:47.471Z,8.76
2023-04-09T17:22:54.492Z,8.78
2023-04-09T17:33:00.291Z,8.72
2023-04-09T17:43:08.009Z,8.54
2023-04-09T17:53:15.151Z,8.30
2023-04-09T18:03:22.581Z,8.19
2023-04-09T18:13:30.159Z,8.19
2023-04-09T18:23:39.649Z,8.22
2023-04-09T18:33:46.908Z,8.17
2023-04-09T18:43:54.250Z,8.03
2023-04-09T18:54:00.805Z,7.89
2023-04-09T19:04:08.322Z,7.86
2023-04-09T19:14:15.517Z,7.88
2023-04-09T19:24:23.790Z,7.98
2023-04-09T19:34:31.429Z,7.84
2023-04-09T19:44:38.662Z,7.52
2023-04-09T19:54:46.673Z,7.29
2023-04-09T20:04:52.569Z,7.17
2023-04-09T20:14:58.723Z,7.15
2023-04-09T20:25:07.832Z,7.15
2023-04-09T20:35:14.678Z,7.22
2023-04-09T20:45:20.639Z,7.15
2023-04-09T20:55:28.129Z,6.96
2023-04-09T21:05:35.846Z,6.91
2023-04-09T21:15:43.046Z,6.93
2023-04-09T21:25:50.185Z,6.93
2023-04-09T21:35:57.853Z,6.89
2023-04-09T21:46:05.211Z,6.95
2023-04-09T21:56:10.065Z,6.94
2023-04-09T22:06:17.143Z,6.86
2023-04-09T22:16:24.672Z,6.81
2023-04-09T22:26:31.163Z,6.81
2023-04-09T22:36:38.725Z,6.81
2023-04-09T22:46:46.531Z,6.87
2023-04-09T22:56:53.180Z,6.81
2023-04-09T23:07:00.231Z,6.89
2023-04-09T23:17:07.149Z,6.96
2023-04-09T23:27:14.325Z,6.92
2023-04-09T23:37:21.697Z,7.00
2023-04-09T23:47:28.897Z,6.93
2023-04-09T23:57:35.929Z,6.81
